Time,TemperatureF,DewpointF,PressureIn,WindDirection,WindDirectionDegrees,WindSpeedMPH,WindSpeedGustMPH,Humidity,HourlyPrecipIn,Conditions,Clouds,dailyrainin,SoftwareType,DateUTC
2013-09-16 00:09:00,48.4,42.0,29.54,WSW,255,0.0,-999.0,78,-99.99,,,0.01,weatherlink.com 1.10,2013-09-15 23:09:00,
2013-09-16 00:24:00,48.1,41.0,29.54,West,269,0.0,-999.0,77,-99.99,,,0.01,weatherlink.com 1.10,2013-09-15 23:24:00,
2013-09-16 00:39:00,47.8,41.0,29.53,West,271,0.0,-999.0,78,-99.99,,,0.01,weatherlink.com 1.10,2013-09-15 23:39:00,
2013-09-16 00:54:00,47.5,41.0,29.53,WSW,238,0.0,-999.0,79,-99.99,,,0.01,weatherlink.com 1.10,2013-09-15 23:54:00,
2013-09-16 01:09:00,47.3,41.0,29.53,West,259,0.0,-999.0,80,-99.99,,,0.01,weatherlink.com 1.10,2013-09-16 00:09:00,
2013-09-16 01:24:00,47.3,41.0,29.54,WNW,288,0.0,-999.0,79,-99.99,,,0.01,weatherlink.com 1.10,2013-09-16 00:24:00,
2013-09-16 01:39:00,47.3,41.0,29.54,WSW,250,0.0,-999.0,79,-99.99,,,0.01,weatherlink.com 1.10,2013-09-16 00:39:00,
2013-09-16 01:54:00,47.3,41.0,29.54,WNW,284,0.0,-999.0,79,-99.99,,,0.01,weatherlink.com 1.10,2013-09-16 00:54:00,
2013-09-16 02:09:00,47.3,41.0,29.54,West,263,0.0,-999.0,79,-99.99,,,0.01,weatherlink.com 1.10,2013-09-16 01:09:00,
2013-09-16 02:24:00,47.2,41.0,29.54,WSW,255,0.0,-999.0,79,-99.99,,,0.01,weatherlink.com 1.10,2013-09-16 01:24:00,
2013-09-16 02:39:00,47.0,41.0,29.54,WSW,246,0.0,-999.0,79,-99.99,,,0.01,weatherlink.com 1.10,2013-09-16 01:39:00,
2013-09-16 02:54:00,47.0,41.0,29.54,WSW,257,0.0,-999.0,79,-99.99,,,0.01,weatherlink.com 1.10,2013-09-16 01:54:00,
2013-09-16 03:09:00,47.3,41.0,29.53,West,259,0.0,-999.0,78,-99.99,,,0.01,weatherlink.com 1.10,2013-09-16 02:09:00,
2013-09-16 03:24:00,47.5,41.0,29.53,West,275,0.0,-999.0,77,-99.99,,,0.01,weatherlink.com 1.10,2013-09-16 02:24:00,
2013-09-16 03:39:00,47.4,41.0,29.52,WSW,243,0.0,-999.0,78,-99.99,,,0.01,weatherlink.com 1.10,2013-09-16 02:39:00,
2013-09-16 03:54:00,47.3,41.0,29.52,West,279,0.0,-999.0,79,-99.99,,,0.01,weatherlink.com 1.10,2013-09-16 02:54:00,
2013-09-16 04:09:00,47.3,41.0,29.52,West,275,0.0,-999.0,80,-99.99,,,0.01,weatherlink.com 1.10,2013-09-16 03:09:00,
2013-09-16 04:24:00,47.0,41.0,29.51,SW,227,0.0,-999.0,81,-99.99,,,0.01,weatherlink.com 1.10,2013-09-16 03:24:00,
2013-09-16 04:39:00,46.8,41.0,29.51,West,268,0.0,-999.0,81,-99.99,,,0.01,weatherlink.com 1.10,2013-09-16 03:39:00,
2013-09-16 04:54:00,47.1,41.0,29.51,WSW,258,0.0,-999.0,80,-99.99,,,0.01,weatherlink.com 1.10,2013-09-16 03:54:00,
2013-09-16 05:09:00,47.1,42.0,29.51,WSW,247,0.0,-999.0,81,-99.99,,,0.01,weatherlink.com 1.10,2013-09-16 04:09:00,
2013-09-16 05:24:00,47.1,41.0,29.51,WSW,243,0.0,-999.0,80,-99.99,,,0.01,weatherlink.com 1.10,2013-09-16 04:24:00,
2013-09-16 05:39:00,47.0,41.0,29.52,WSW,258,0.0,-999.0,80,-99.99,,,0.01,weatherlink.com 1.10,2013-09-16 04:39:00,
2013-09-16 05:54:00,47.1,41.0,29.52,West,273,0.0,-999.0,80,-99.99,,,0.01,weatherlink.com 1.10,2013-09-16 04:54:00,
2013-09-16 06:09:00,47.2,41.0,29.52,West,278,0.0,-999.0,79,-99.99,,,0.01,weatherlink.com 1.10,2013-09-16 05:09:00,
2013-09-16 06:24:00,47.2,41.0,29.52,West,273,0.0,-999.0,79,-99.99,,,0.01,weatherlink.com 1.10,2013-09-16 05:24:00,
2013-09-16 06:39:00,47.0,41.0,29.53,WSW,245,0.0,-999.0,80,-99.99,,,0.01,weatherlink.com 1.10,2013-09-16 05:39:00,
2013-09-16 06:54:00,46.8,41.0,29.53,West,275,0.0,-999.0,81,-99.99,,,0.01,weatherlink.com 1.10,2013-09-16 05:54:00,
2013-09-16 07:09:00,46.6,41.0,29.53,WNW,291,0.0,-999.0,80,-99.99,,,0.01,weatherlink.com 1.10,2013-09-16 06:09:00,
2013-09-16 07:24:00,46.5,41.0,29.54,West,259,0.0,-999.0,80,-99.99,,,0.01,weatherlink.com 1.10,2013-09-16 06:24:00,
2013-09-16 07:39:00,46.4,41.0,29.54,West,270,0.0,-999.0,80,-99.99,,,0.01,weatherlink.com 1.10,2013-09-16 06:39:00,
2013-09-16 07:54:00,46.5,40.0,29.54,West,280,0.0,-999.0,79,-99.99,,,0.01,weatherlink.com 1.10,2013-09-16 06:54:00,
2013-09-16 08:10:00,46.5,40.0,29.55,West,281,0.0,-999.0,79,-99.99,,,0.01,weatherlink.com 1.10,2013-09-16 07:10:00,
2013-09-16 08:25:00,46.4,41.0,29.55,West,260,0.0,-999.0,80,-99.99,,,0.01,weatherlink.com 1.10,2013-09-16 07:25:00,
2013-09-16 08:40:00,47.0,41.0,29.55,West,277,0.0,-999.0,80,-99.99,,,0.01,weatherlink.com 1.10,2013-09-16 07:40:00,
2013-09-16 08:55:00,47.5,41.0,29.55,West,264,0.0,-999.0,79,-99.99,,,0.01,weatherlink.com 1.10,2013-09-16 07:55:00,
2013-09-16 09:10:00,48.1,41.0,29.54,WSW,242,0.0,-999.0,77,-99.99,,,0.01,weatherlink.com 1.10,2013-09-16 08:10:00,
2013-09-16 09:25:00,48.7,41.0,29.54,West,281,0.0,-999.0,76,-99.99,,,0.01,weatherlink.com 1.10,2013-09-16 08:25:00,
2013-09-16 09:40:00,49.2,41.0,29.54,WSW,254,0.0,-999.0,74,-99.99,,,0.01,weatherlink.com 1.10,2013-09-16 08:40:00,
2013-09-16 09:55:00,49.6,42.0,29.54,WNW,286,0.0,-999.0,74,-99.99,,,0.01,weatherlink.com 1.10,2013-09-16 08:55:00,
2013-09-16 10:10:00,50.3,42.0,29.54,WNW,283,0.0,-999.0,72,-99.99,,,0.01,weatherlink.com 1.10,2013-09-16 09:10:00,
2013-09-16 10:25:00,50.9,41.0,29.54,SW,229,0.0,-999.0,70,-99.99,,,0.01,weatherlink.com 1.10,2013-09-16 09:25:00,
2013-09-16 10:40:00,51.4,42.0,29.54,WNW,292,0.0,-999.0,69,-99.99,,,0.01,weatherlink.com 1.10,2013-09-16 09:40:00,
2013-09-16 10:55:00,51.9,41.0,29.55,West,273,0.0,-999.0,67,-99.99,,,0.00,weatherlink.com 1.10,2013-09-16 09:55:00,
2013-09-16 11:10:00,51.7,41.0,29.55,NNW,333,0.0,-999.0,68,-99.99,,,0.00,weatherlink.com 1.10,2013-09-16 10:10:00,
2013-09-16 11:25:00,52.8,41.0,29.55,WNW,300,0.0,-999.0,65,-99.99,,,0.00,weatherlink.com 1.10,2013-09-16 10:25:00,
2013-09-16 11:40:00,53.1,40.0,29.55,WNW,284,0.0,-999.0,62,-99.99,,,0.00,weatherlink.com 1.10,2013-09-16 10:40:00,
2013-09-16 11:55:00,53.4,41.0,29.55,West,280,0.0,-999.0,63,-99.99,,,0.00,weatherlink.com 1.10,2013-09-16 10:55:00,
2013-09-16 12:10:00,53.8,41.0,29.54,West,267,0.0,-999.0,62,-99.99,,,0.00,weatherlink.com 1.10,2013-09-16 11:10:00,
2013-09-16 12:25:00,53.3,41.0,29.55,WSW,252,0.0,-999.0,63,-99.99,,,0.00,weatherlink.com 1.10,2013-09-16 11:25:00,
2013-09-16 12:40:00,53.6,41.0,29.55,NW,315,0.0,-999.0,63,-99.99,,,0.00,weatherlink.com 1.10,2013-09-16 11:40:00,
2013-09-16 12:55:00,53.3,41.0,29.56,NW,322,0.0,-999.0,64,-99.99,,,0.00,weatherlink.com 1.10,2013-09-16 11:55:00,
2013-09-16 13:10:00,53.2,42.0,29.56,West,280,0.0,-999.0,65,-99.99,,,0.00,weatherlink.com 1.10,2013-09-16 12:10:00,
2013-09-16 13:25:00,52.3,40.0,29.56,NW,305,0.0,-999.0,64,-99.99,,,0.00,weatherlink.com 1.10,2013-09-16 12:25:00,
2013-09-16 13:40:00,53.3,42.0,29.56,WNW,284,0.0,-999.0,65,-99.99,,,0.00,weatherlink.com 1.10,2013-09-16 12:40:00,
2013-09-16 13:55:00,54.4,43.0,29.56,NW,318,0.0,-999.0,66,-99.99,,,0.00,weatherlink.com 1.10,2013-09-16 12:55:00,
2013-09-16 14:10:00,55.9,41.0,29.56,WSW,254,0.0,-999.0,58,-99.99,,,0.00,weatherlink.com 1.10,2013-09-16 13:10:00,
2013-09-16 14:25:00,55.7,42.0,29.56,NNW,343,0.0,-999.0,60,-99.99,,,0.00,weatherlink.com 1.10,2013-09-16 13:25:00,
2013-09-16 14:40:00,54.7,42.0,29.56,West,279,0.0,-999.0,62,-99.99,,,0.00,weatherlink.com 1.10,2013-09-16 13:40:00,
2013-09-16 14:55:00,54.4,43.0,29.56,WNW,302,0.0,-999.0,65,-99.99,,,0.00,weatherlink.com 1.10,2013-09-16 13:55:00,
2013-09-16 15:10:00,54.5,43.0,29.57,WNW,292,0.0,-999.0,65,-99.99,,,0.00,weatherlink.com 1.10,2013-09-16 14:10:00,
2013-09-16 15:25:00,54.8,43.0,29.56,NW,309,0.0,-999.0,64,-99.99,,,0.00,weatherlink.com 1.10,2013-09-16 14:25:00,
2013-09-16 15:40:00,55.9,42.0,29.56,West,275,0.0,-999.0,61,-99.99,,,0.00,weatherlink.com 1.10,2013-09-16 14:40:00,
2013-09-16 15:55:00,55.7,41.0,29.56,NW,306,0.0,-999.0,58,-99.99,,,0.00,weatherlink.com 1.10,2013-09-16 14:55:00,
2013-09-16 16:10:00,56.2,42.0,29.56,West,270,0.0,-999.0,60,-99.99,,,0.00,weatherlink.com 1.10,2013-09-16 15:10:00,
2013-09-16 16:25:00,55.9,42.0,29.57,WNW,292,0.0,-999.0,61,-99.99,,,0.00,weatherlink.com 1.10,2013-09-16 15:25:00,
2013-09-16 16:40:00,51.9,44.0,29.58,West,274,0.0,-999.0,74,-99.99,,,0.00,weatherlink.com 1.10,2013-09-16 15:40:00,
2013-09-16 16:55:00,52.2,45.0,29.57,WNW,290,0.0,-999.0,75,-99.99,,,0.00,weatherlink.com 1.10,2013-09-16 15:55:00,
2013-09-16 17:25:00,52.4,43.0,29.58,WNW,296,0.0,-999.0,71,-99.99,,,0.00,weatherlink.com 1.10,2013-09-16 16:25:00,
2013-09-16 17:40:00,52.3,44.0,29.58,NW,321,0.0,-999.0,72,-99.99,,,0.00,weatherlink.com 1.10,2013-09-16 16:40:00,
2013-09-16 17:55:00,52.0,44.0,29.59,West,265,0.0,-999.0,75,-99.99,,,0.00,weatherlink.com 1.10,2013-09-16 16:55:00,
2013-09-16 18:11:00,51.7,43.0,29.59,West,279,0.0,-999.0,73,-99.99,,,0.00,weatherlink.com 1.10,2013-09-16 17:11:00,
2013-09-16 18:25:00,51.3,42.0,29.58,WNW,299,0.0,-999.0,70,-99.99,,,0.00,weatherlink.com 1.10,2013-09-16 17:25:00,
2013-09-16 18:40:00,51.9,43.0,29.59,West,269,0.0,-999.0,72,-99.99,,,0.00,weatherlink.com 1.10,2013-09-16 17:40:00,
2013-09-16 18:55:00,51.6,44.0,29.59,West,259,0.0,-999.0,74,-99.99,,,0.00,weatherlink.com 1.10,2013-09-16 17:55:00,
2013-09-16 19:10:00,51.7,43.0,29.59,West,268,0.0,-999.0,72,-99.99,,,0.00,weatherlink.com 1.10,2013-09-16 18:10:00,
2013-09-16 19:25:00,51.7,42.0,29.59,West,264,0.0,-999.0,70,-99.99,,,0.00,weatherlink.com 1.10,2013-09-16 18:25:00,
2013-09-16 19:40:00,51.6,41.0,29.58,WNW,283,0.0,-999.0,68,-99.99,,,0.00,weatherlink.com 1.10,2013-09-16 18:40:00,
2013-09-16 19:55:00,51.4,42.0,29.59,WNW,294,0.0,-999.0,69,-99.99,,,0.00,weatherlink.com 1.10,2013-09-16 18:55:00,
2013-09-16 20:10:00,51.0,42.0,29.59,WNW,295,0.0,-999.0,70,-99.99,,,0.00,weatherlink.com 1.10,2013-09-16 19:10:00,
2013-09-16 20:25:00,50.7,42.0,29.59,West,272,0.0,-999.0,71,-99.99,,,0.00,weatherlink.com 1.10,2013-09-16 19:25:00,
2013-09-16 20:40:00,50.5,41.0,29.59,West,273,0.0,-999.0,71,-99.99,,,0.00,weatherlink.com 1.10,2013-09-16 19:40:00,
2013-09-16 20:55:00,50.2,41.0,29.59,NW,310,0.0,-999.0,72,-99.99,,,0.00,weatherlink.com 1.10,2013-09-16 19:55:00,
2013-09-16 21:11:00,49.9,42.0,29.59,West,261,0.0,-999.0,73,-99.99,,,0.00,weatherlink.com 1.10,2013-09-16 20:11:00,
2013-09-16 21:26:00,49.8,42.0,29.59,West,271,0.0,-999.0,75,-99.99,,,0.00,weatherlink.com 1.10,2013-09-16 20:26:00,
2013-09-16 21:41:00,49.8,42.0,29.60,WSW,253,0.0,-999.0,75,-99.99,,,0.00,weatherlink.com 1.10,2013-09-16 20:41:00,
2013-09-16 21:56:00,49.7,42.0,29.60,WSW,254,0.0,-999.0,75,-99.99,,,0.00,weatherlink.com 1.10,2013-09-16 20:56:00,
2013-09-16 22:11:00,49.6,42.0,29.59,WNW,293,0.0,-999.0,75,-99.99,,,0.00,weatherlink.com 1.10,2013-09-16 21:11:00,
2013-09-16 22:26:00,49.6,42.0,29.59,WSW,248,0.0,-999.0,75,-99.99,,,0.00,weatherlink.com 1.10,2013-09-16 21:26:00,
2013-09-16 22:41:00,49.7,42.0,29.59,West,280,0.0,-999.0,75,-99.99,,,0.00,weatherlink.com 1.10,2013-09-16 21:41:00,
2013-09-16 22:56:00,49.7,42.0,29.59,NW,309,0.0,-999.0,75,-99.99,,,0.00,weatherlink.com 1.10,2013-09-16 21:56:00,
2013-09-16 23:11:00,49.7,42.0,29.60,West,279,0.0,-999.0,75,-99.99,,,0.00,weatherlink.com 1.10,2013-09-16 22:11:00,
2013-09-16 23:26:00,49.9,42.0,29.59,WSW,247,0.0,-999.0,75,-99.99,,,0.00,weatherlink.com 1.10,2013-09-16 22:26:00,
2013-09-16 23:41:00,49.9,43.0,29.59,WSW,244,0.0,-999.0,76,-99.99,,,0.00,weatherlink.com 1.10,2013-09-16 22:41:00,
2013-09-16 23:56:00,49.9,43.0,29.59,WSW,254,0.0,-999.0,76,-99.99,,,0.00,weatherlink.com 1.10,2013-09-16 22:56:00,